Time;durP1;ratioP1;P1;durP2;ratioP2;P2;SDS_P1;SDS_P2;PMS_P1;PMS_P2;Temp;Humidity;BMP_temperature;BMP_pressure;BME280_temperature;BME280_humidity;BME280_pressure;Samples;Min_cycle;Max_cycle;Signal;HPM_P1;HPM_P2
2023/06/19 00:00:15;;;;;;;3.78;3.38;;;19.90;99.90;;;;;;6218353;23;20393;-85
2023/06/19 00:02:42;;;;;;;3.95;3.55;;;19.90;99.90;;;;;;6245381;23;20091;-85
2023/06/19 00:05:08;;;;;;;5.53;4.05;;;20.00;99.90;;;;;;6245068;23;20024;-85
2023/06/19 00:07:35;;;;;;;4.97;4.45;;;19.90;99.90;;;;;;6245409;23;20024;-85
2023/06/19 00:10:01;;;;;;;5.45;3.88;;;19.90;99.90;;;;;;6218444;23;20415;-86
2023/06/19 00:12:27;;;;;;;4.50;3.70;;;19.90;99.90;;;;;;6245004;23;20024;-85
2023/06/19 00:14:52;;;;;;;4.07;3.50;;;19.90;99.90;;;;;;6245291;23;20040;-85
2023/06/19 00:17:18;;;;;;;4.60;4.10;;;19.90;99.90;;;;;;6218181;23;20454;-86
2023/06/19 00:19:44;;;;;;;4.72;4.15;;;19.90;99.90;;;;;;6218273;23;20020;-85
2023/06/19 00:22:10;;;;;;;4.40;3.42;;;19.80;99.90;;;;;;6245556;23;20020;-85
2023/06/19 00:24:35;;;;;;;6.55;3.70;;;19.90;99.90;;;;;;6244948;23;20461;-84
2023/06/19 00:27:02;;;;;;;5.63;3.75;;;19.80;99.90;;;;;;6192676;23;20031;-85
2023/06/19 00:29:29;;;;;;;3.85;3.45;;;19.80;99.90;;;;;;6245543;23;20024;-85
2023/06/19 00:31:55;;;;;;;3.70;3.33;;;19.80;99.90;;;;;;6245014;23;20101;-84
2023/06/19 00:34:24;;;;;;;4.20;3.80;;;19.80;99.90;;;;;;6244739;23;20020;-85
2023/06/19 00:36:50;;;;;;;4.25;3.53;;;19.80;99.90;;;;;;6245090;23;20028;-85
2023/06/19 00:39:17;;;;;;;4.70;3.67;;;19.80;99.90;;;;;;6218028;23;20028;-85
2023/06/19 00:41:44;;;;;;;5.10;3.90;;;19.80;99.90;;;;;;6245672;23;20027;-85
2023/06/19 00:44:10;;;;;;;4.10;3.08;;;19.80;99.90;;;;;;6246602;23;20016;-84
2023/06/19 00:46:40;;;;;;;5.85;3.67;;;19.80;99.90;;;;;;6220206;23;20042;-85
2023/06/19 00:49:07;;;;;;;3.42;3.13;;;19.80;99.90;;;;;;6220653;23;20016;-84
2023/06/19 00:51:33;;;;;;;3.83;3.25;;;19.80;99.90;;;;;;6246969;23;20016;-86
2023/06/19 00:53:59;;;;;;;4.20;3.25;;;19.70;99.90;;;;;;6220436;23;20043;-84
2023/06/19 00:56:25;;;;;;;4.82;3.83;;;19.70;99.90;;;;;;6247370;23;20019;-85
2023/06/19 00:58:53;;;;;;;3.45;3.10;;;19.70;99.90;;;;;;6220017;23;20029;-85
2023/06/19 01:01:21;;;;;;;3.53;2.70;;;19.70;99.90;;;;;;6247120;23;20019;-85
2023/06/19 01:03:46;;;;;;;4.50;3.35;;;19.70;99.90;;;;;;6245116;23;20027;-85
2023/06/19 01:06:29;;;;;;;4.50;3.38;;;19.70;99.90;;;;;;6246949;23;20020;-84
2023/06/19 01:09:01;;;;;;;3.90;3.47;;;19.70;99.90;;;;;;6246730;23;20431;-84
2023/06/19 01:11:33;;;;;;;3.92;3.47;;;19.70;99.90;;;;;;6247024;23;20350;-85
2023/06/19 01:14:02;;;;;;;4.35;3.08;;;19.70;99.90;;;;;;6247265;23;20020;-85
2023/06/19 01:16:29;;;;;;;4.50;3.13;;;19.70;99.90;;;;;;6246748;23;20517;-86
2023/06/19 01:18:56;;;;;;;4.18;3.42;;;19.60;99.90;;;;;;6220323;23;20016;-84
2023/06/19 01:21:21;;;;;;;5.65;3.58;;;19.70;99.90;;;;;;6220532;23;20020;-85
2023/06/19 01:23:47;;;;;;;4.18;3.45;;;19.70;99.90;;;;;;6246989;23;20090;-85
2023/06/19 01:26:13;;;;;;;4.90;4.07;;;19.70;99.90;;;;;;6219750;23;20024;-85
2023/06/19 01:28:41;;;;;;;6.22;4.20;;;19.80;99.90;;;;;;6220642;23;20043;-84
2023/06/19 01:31:13;;;;;;;6.55;4.10;;;19.80;99.90;;;;;;6246770;23;20012;-85
2023/06/19 01:33:40;;;;;;;4.20;3.63;;;19.80;99.90;;;;;;6247045;23;20020;-84
2023/06/19 01:36:07;;;;;;;4.40;3.50;;;19.80;99.90;;;;;;6219386;23;20087;-85
2023/06/19 01:38:34;;;;;;;6.97;3.30;;;19.90;99.90;;;;;;6247043;23;20019;-85
2023/06/19 01:41:02;;;;;;;3.83;3.28;;;19.90;99.90;;;;;;6246485;23;20016;-84
2023/06/19 01:43:30;;;;;;;5.32;3.90;;;19.90;99.90;;;;;;6246959;23;20055;-85
2023/06/19 01:45:57;;;;;;;5.13;3.83;;;19.90;99.90;;;;;;6220167;23;20028;-84
2023/06/19 01:48:23;;;;;;;4.63;3.55;;;19.90;99.90;;;;;;6246743;23;20031;-85
2023/06/19 01:50:50;;;;;;;3.80;3.42;;;20.00;99.90;;;;;;6246595;23;20087;-85
2023/06/19 01:53:15;;;;;;;4.63;3.25;;;20.00;99.90;;;;;;6246879;23;20024;-85
2023/06/19 01:55:42;;;;;;;5.38;3.83;;;20.00;99.90;;;;;;6219279;23;20024;-87
2023/06/19 01:58:07;;;;;;;3.65;3.17;;;20.00;99.90;;;;;;6246655;23;20062;-85
2023/06/19 02:00:36;;;;;;;3.17;2.28;;;20.00;99.90;;;;;;6219786;23;20373;-85
2023/06/19 02:03:03;;;;;;;4.22;3.40;;;20.00;99.90;;;;;;6246627;23;20066;-85
2023/06/19 02:05:32;;;;;;;3.97;3.25;;;20.00;99.90;;;;;;6219233;23;20039;-85
2023/06/19 02:07:58;;;;;;;5.15;4.05;;;20.10;99.90;;;;;;6219527;23;20510;-85
2023/06/19 02:10:25;;;;;;;4.40;3.10;;;20.10;99.90;;;;;;6245947;23;20024;-85
2023/06/19 02:12:51;;;;;;;3.83;3.22;;;20.10;99.90;;;;;;6246370;23;20074;-85
2023/06/19 02:15:16;;;;;;;5.07;3.67;;;20.10;99.90;;;;;;6246155;23;20032;-86
2023/06/19 02:17:42;;;;;;;5.78;3.38;;;20.10;99.90;;;;;;6246689;23;20020;-86
2023/06/19 02:20:11;;;;;;;4.85;3.95;;;20.20;99.90;;;;;;6246117;23;20027;-85
2023/06/19 02:22:38;;;;;;;4.05;3.00;;;20.20;99.90;;;;;;6246509;23;20023;-84
2023/06/19 02:25:05;;;;;;;3.97;3.22;;;20.20;99.90;;;;;;6246050;23;20462;-85
2023/06/19 02:27:30;;;;;;;5.50;3.25;;;20.20;99.90;;;;;;6219380;23;20091;-85
2023/06/19 02:29:56;;;;;;;3.72;2.92;;;20.20;99.90;;;;;;6246753;23;20055;-85
2023/06/19 02:32:22;;;;;;;4.30;3.50;;;20.20;99.90;;;;;;6245984;23;20338;-85
2023/06/19 02:34:47;;;;;;;4.22;3.03;;;20.20;99.90;;;;;;6246237;23;20063;-85
2023/06/19 02:37:13;;;;;;;3.13;2.70;;;20.20;99.90;;;;;;6218960;23;20081;-85
2023/06/19 02:39:39;;;;;;;3.45;3.15;;;20.10;99.90;;;;;;6219268;23;20098;-85
2023/06/19 02:42:06;;;;;;;3.55;2.33;;;20.10;99.90;;;;;;6219226;23;20506;-85
2023/06/19 02:44:31;;;;;;;3.65;3.10;;;20.10;99.90;;;;;;6246147;23;20035;-86
2023/06/19 02:46:57;;;;;;;4.20;2.83;;;20.10;99.90;;;;;;6218956;23;20024;-86
2023/06/19 02:49:23;;;;;;;4.03;3.05;;;20.10;99.90;;;;;;6246178;23;20023;-86
2023/06/19 02:51:49;;;;;;;3.75;2.67;;;20.00;99.90;;;;;;6219231;23;20020;-85
2023/06/19 02:54:14;;;;;;;4.00;2.75;;;20.00;99.90;;;;;;6246077;23;20061;-85
2023/06/19 02:56:40;;;;;;;3.63;2.78;;;20.00;99.90;;;;;;6246191;23;20020;-85
2023/06/19 02:59:06;;;;;;;5.15;3.03;;;20.00;99.90;;;;;;6245664;23;20350;-86
2023/06/19 03:01:33;;;;;;;3.95;3.50;;;20.00;99.90;;;;;;6218959;23;20404;-85
2023/06/19 03:03:59;;;;;;;3.80;3.00;;;20.00;99.90;;;;;;6219600;23;20074;-85
2023/06/19 03:06:26;;;;;;;5.38;3.72;;;19.90;99.90;;;;;;6218116;23;20053;-85
2023/06/19 03:08:51;;;;;;;5.00;3.30;;;19.90;99.90;;;;;;6218607;23;20328;-84
2023/06/19 03:11:17;;;;;;;4.13;2.95;;;19.90;99.90;;;;;;6245913;23;20074;-84
2023/06/19 03:13:54;;;;;;;3.97;3.13;;;19.90;99.90;;;;;;6245465;23;20461;-84
2023/06/19 03:16:20;;;;;;;3.40;2.72;;;19.90;99.90;;;;;;6246005;23;20023;-85
2023/06/19 03:18:46;;;;;;;3.78;3.15;;;19.80;99.90;;;;;;6218801;23;20024;-84
2023/06/19 03:21:13;;;;;;;4.53;2.63;;;19.80;99.90;;;;;;6245695;23;20031;-86
2023/06/19 03:23:40;;;;;;;3.65;2.88;;;19.80;99.90;;;;;;6245868;23;20052;-85
2023/06/19 03:26:10;;;;;;;3.80;2.75;;;19.80;99.90;;;;;;6245597;23;20470;-85
2023/06/19 03:28:35;;;;;;;5.30;2.63;;;19.80;99.90;;;;;;6245849;23;20462;-85
2023/06/19 03:31:01;;;;;;;3.33;2.85;;;19.80;99.90;;;;;;6245895;23;20023;-85
2023/06/19 03:33:27;;;;;;;3.40;2.90;;;19.80;99.90;;;;;;6218976;23;20028;-84
2023/06/19 03:35:53;;;;;;;2.97;2.67;;;19.90;99.90;;;;;;6245361;23;20022;-85
2023/06/19 03:38:19;;;;;;;3.65;2.58;;;19.90;99.90;;;;;;6245517;23;20027;-85
2023/06/19 03:40:44;;;;;;;3.50;2.70;;;19.90;99.90;;;;;;6245241;23;20020;-84
2023/06/19 03:43:11;;;;;;;3.88;2.72;;;19.80;99.90;;;;;;6218532;23;20091;-86
2023/06/19 03:45:37;;;;;;;3.38;2.63;;;19.80;99.90;;;;;;6245453;23;20028;-85
2023/06/19 03:48:03;;;;;;;3.80;3.10;;;19.80;99.90;;;;;;6245641;23;20020;-85
2023/06/19 03:50:28;;;;;;;3.28;2.50;;;19.80;99.90;;;;;;6245664;23;20051;-84
2023/06/19 03:52:54;;;;;;;4.57;2.60;;;19.80;99.90;;;;;;6245777;23;20031;-85
2023/06/19 03:55:20;;;;;;;4.22;2.92;;;19.80;99.90;;;;;;6245622;23;20070;-85
2023/06/19 03:57:45;;;;;;;4.22;2.60;;;19.80;99.90;;;;;;6245138;23;20444;-85
2023/06/19 04:00:12;;;;;;;3.40;2.78;;;19.70;99.90;;;;;;6218535;23;20026;-85
2023/06/19 04:02:41;;;;;;;2.58;2.38;;;19.70;99.90;;;;;;6245304;23;20024;-85
2023/06/19 04:05:07;;;;;;;4.78;3.22;;;19.70;99.90;;;;;;6218199;23;20031;-85
2023/06/19 04:07:33;;;;;;;4.57;3.30;;;19.70;99.90;;;;;;6218277;23;20027;-85
2023/06/19 04:09:59;;;;;;;3.78;3.03;;;19.70;99.90;;;;;;6245303;23;20020;-85
2023/06/19 04:12:25;;;;;;;4.63;3.70;;;19.60;99.90;;;;;;6245003;23;20546;-84
2023/06/19 04:14:51;;;;;;;4.47;3.33;;;19.60;99.90;;;;;;6245573;23;20058;-84
2023/06/19 04:17:17;;;;;;;7.55;3.30;;;19.70;99.90;;;;;;6245194;23;20062;-85
2023/06/19 04:19:43;;;;;;;5.45;3.40;;;19.60;99.90;;;;;;6245115;23;20427;-84
2023/06/19 04:22:08;;;;;;;4.03;3.08;;;19.70;99.90;;;;;;6245505;23;20027;-84
2023/06/19 04:24:35;;;;;;;4.18;3.25;;;19.60;99.90;;;;;;6245427;23;20028;-84
2023/06/19 04:27:01;;;;;;;5.20;4.30;;;19.70;99.90;;;;;;6218663;23;20024;-84
2023/06/19 04:29:31;;;;;;;5.50;3.72;;;19.80;99.90;;;;;;6245221;23;20078;-83
2023/06/19 04:31:58;;;;;;;4.95;2.95;;;19.90;99.90;;;;;;6245389;23;20024;-86
2023/06/19 04:34:25;;;;;;;5.35;4.13;;;20.00;99.90;;;;;;6218318;23;20089;-85
2023/06/19 04:36:51;;;;;;;4.28;3.50;;;20.10;99.90;;;;;;6218129;23;20065;-84
2023/06/19 04:39:16;;;;;;;4.25;3.45;;;20.10;99.90;;;;;;6244790;23;20021;-86
2023/06/19 04:41:45;;;;;;;5.38;3.40;;;20.20;99.90;;;;;;6245099;23;20335;-85
2023/06/19 04:44:11;;;;;;;5.15;3.15;;;20.20;99.90;;;;;;6245497;23;20020;-84
2023/06/19 04:46:37;;;;;;;4.00;2.75;;;20.30;99.90;;;;;;6218403;23;20055;-84
2023/06/19 04:49:04;;;;;;;5.47;3.33;;;20.30;99.90;;;;;;6245273;23;20017;-85
2023/06/19 04:51:33;;;;;;;6.07;3.80;;;20.40;99.90;;;;;;6245019;23;20051;-84
2023/06/19 04:54:02;;;;;;;5.18;3.47;;;20.50;99.90;;;;;;6244846;23;20481;-85
2023/06/19 04:56:28;;;;;;;6.18;2.97;;;20.60;99.90;;;;;;6244777;23;20446;-85
2023/06/19 04:58:59;;;;;;;5.50;3.45;;;20.60;99.90;;;;;;6245252;23;20071;-86
2023/06/19 05:01:28;;;;;;;4.35;3.33;;;20.60;99.90;;;;;;6218381;23;20020;-85
2023/06/19 05:03:54;;;;;;;4.93;3.10;;;20.70;99.90;;;;;;6244879;23;20451;-85
2023/06/19 05:06:23;;;;;;;3.78;2.70;;;20.80;99.90;;;;;;6244923;23;20095;-84
2023/06/19 05:08:49;;;;;;;5.75;2.58;;;20.80;99.90;;;;;;6244986;23;20032;-84
2023/06/19 05:11:14;;;;;;;4.13;2.50;;;20.80;99.90;;;;;;6217939;23;20020;-84
2023/06/19 05:13:40;;;;;;;2.50;1.85;;;20.90;99.90;;;;;;6244777;23;20316;-84
2023/06/19 05:16:06;;;;;;;3.47;2.05;;;20.90;99.90;;;;;;6193190;23;20047;-83
2023/06/19 05:18:31;;;;;;;7.05;2.17;;;20.90;99.90;;;;;;6244858;23;20094;-85
2023/06/19 05:20:57;;;;;;;2.50;1.80;;;20.80;99.90;;;;;;6245240;23;20100;-83
2023/06/19 05:23:23;;;;;;;3.95;2.38;;;20.90;99.90;;;;;;6245064;23;20023;-83
2023/06/19 05:25:49;;;;;;;3.42;2.20;;;20.90;99.90;;;;;;6245005;23;20437;-84
2023/06/19 05:28:14;;;;;;;5.80;2.05;;;21.00;99.90;;;;;;6217995;23;20020;-84
2023/06/19 05:30:40;;;;;;;2.53;1.58;;;21.00;99.90;;;;;;6219405;23;20024;-84
2023/06/19 05:33:06;;;;;;;2.90;1.70;;;21.00;99.90;;;;;;6246370;23;20020;-84
2023/06/19 05:35:31;;;;;;;4.07;2.20;;;21.00;99.90;;;;;;6220183;23;20027;-83
2023/06/19 05:37:57;;;;;;;2.50;1.40;;;21.00;99.90;;;;;;6246634;23;20458;-84
2023/06/19 05:40:23;;;;;;;2.83;1.38;;;21.10;99.90;;;;;;6219468;23;20024;-83
2023/06/19 05:42:49;;;;;;;2.50;1.60;;;21.10;99.90;;;;;;6246651;23;20478;-84
2023/06/19 05:45:15;;;;;;;4.03;1.38;;;21.20;99.90;;;;;;6246569;23;20016;-85
2023/06/19 05:47:40;;;;;;;2.30;1.83;;;21.30;99.90;;;;;;6219656;23;20031;-83
2023/06/19 05:50:06;;;;;;;2.22;2.00;;;21.30;99.90;;;;;;6246934;23;20016;-84
2023/06/19 05:52:32;;;;;;;3.80;2.30;;;21.40;99.90;;;;;;6219456;23;20085;-84
2023/06/19 05:54:58;;;;;;;2.80;1.63;;;21.40;99.90;;;;;;6246858;23;20051;-83
2023/06/19 05:57:24;;;;;;;4.55;1.95;;;21.40;99.90;;;;;;6246662;23;20020;-83
2023/06/19 05:59:50;;;;;;;4.03;1.65;;;21.50;99.90;;;;;;6219461;23;20027;-84
2023/06/19 06:02:20;;;;;;;4.15;2.38;;;21.70;99.90;;;;;;6219389;23;20470;-83
2023/06/19 06:04:45;;;;;;;3.92;2.08;;;21.80;99.90;;;;;;6246757;23;20012;-83
2023/06/19 06:07:11;;;;;;;4.47;2.50;;;21.80;99.90;;;;;;6246247;23;20109;-84
2023/06/19 06:09:37;;;;;;;6.22;3.42;;;21.80;99.90;;;;;;6219357;23;20017;-83
2023/06/19 06:12:03;;;;;;;4.32;2.45;;;21.70;99.90;;;;;;6219221;23;20397;-84
2023/06/19 06:14:29;;;;;;;6.13;3.40;;;21.70;99.90;;;;;;6219556;23;20016;-84
2023/06/19 06:16:55;;;;;;;4.28;2.90;;;21.70;99.90;;;;;;6246542;23;20069;-84
2023/06/19 06:19:23;;;;;;;6.68;2.83;;;21.70;99.90;;;;;;6219309;23;20103;-84
2023/06/19 06:21:49;;;;;;;4.35;2.78;;;21.60;99.90;;;;;;6246751;23;20020;-84
2023/06/19 06:24:15;;;;;;;5.07;2.97;;;21.70;99.90;;;;;;6247503;23;20443;-86
2023/06/19 06:26:41;;;;;;;5.50;4.18;;;21.70;99.90;;;;;;6195702;23;20021;-86
2023/06/19 06:29:07;;;;;;;5.22;2.92;;;21.80;99.90;;;;;;6220408;23;20024;-85
2023/06/19 06:31:34;;;;;;;6.53;4.45;;;21.80;99.90;;;;;;6219609;23;20465;-89
2023/06/19 06:34:00;;;;;;;6.95;4.07;;;21.90;99.90;;;;;;6219688;23;20027;-88
2023/06/19 06:36:26;;;;;;;8.57;4.10;;;21.90;99.90;;;;;;6218924;23;20025;-85
2023/06/19 06:38:51;;;;;;;6.32;4.13;;;22.00;99.90;;;;;;6246183;23;20328;-85
2023/06/19 06:41:17;;;;;;;5.15;3.72;;;22.10;99.90;;;;;;6245368;23;20020;-84
2023/06/19 06:43:43;;;;;;;8.40;4.00;;;22.00;99.90;;;;;;6246409;23;20016;-85
2023/06/19 06:46:10;;;;;;;4.43;2.95;;;22.00;99.90;;;;;;6246095;23;20082;-84
2023/06/19 06:48:36;;;;;;;6.28;3.95;;;22.00;99.90;;;;;;6219564;23;20346;-85
2023/06/19 06:51:02;;;;;;;5.22;3.28;;;21.90;99.90;;;;;;6218372;23;20020;-88
2023/06/19 06:53:28;;;;;;;6.68;3.33;;;21.90;99.90;;;;;;6246063;23;20095;-87
2023/06/19 06:55:55;;;;;;;5.82;3.33;;;21.90;99.90;;;;;;6246197;23;20027;-87
2023/06/19 06:58:22;;;;;;;6.22;3.42;;;21.90;99.90;;;;;;6219195;23;20023;-87
2023/06/19 07:00:48;;;;;;;3.58;2.45;;;21.90;99.90;;;;;;6193959;23;20024;-87
2023/06/19 07:03:14;;;;;;;3.63;2.58;;;21.80;99.90;;;;;;6246125;23;20055;-84
2023/06/19 07:05:40;;;;;;;4.88;3.30;;;21.70;99.90;;;;;;6246035;23;20027;-89
2023/06/19 07:08:05;;;;;;;5.13;3.80;;;21.70;99.90;;;;;;6220317;23;20050;-88
2023/06/19 07:10:31;;;;;;;5.57;3.08;;;21.70;99.90;;;;;;6219110;23;20454;-87
2023/06/19 07:12:57;;;;;;;6.40;3.15;;;21.60;99.90;;;;;;6218992;23;20080;-87
2023/06/19 07:15:23;;;;;;;6.55;3.47;;;21.50;99.90;;;;;;6219265;23;20070;-85
2023/06/19 07:17:48;;;;;;;4.82;3.20;;;21.50;99.90;;;;;;6219122;23;20019;-88
2023/06/19 07:20:14;;;;;;;4.25;2.80;;;21.40;99.90;;;;;;6193552;23;20099;-88
2023/06/19 07:22:41;;;;;;;5.35;3.60;;;21.40;99.90;;;;;;6218894;23;20012;-87
2023/06/19 07:25:07;;;;;;;8.07;4.15;;;21.40;99.90;;;;;;6246132;23;20099;-86
2023/06/19 07:27:33;;;;;;;6.13;4.03;;;21.30;99.90;;;;;;6245845;23;20023;-86
2023/06/19 07:29:59;;;;;;;6.53;4.43;;;21.30;99.90;;;;;;6218779;23;20016;-88
2023/06/19 07:32:25;;;;;;;5.78;4.43;;;21.20;99.90;;;;;;6218668;23;20020;-88
2023/06/19 07:34:51;;;;;;;6.85;4.13;;;21.10;99.90;;;;;;6245615;23;20082;-84
2023/06/19 07:37:20;;;;;;;6.18;3.80;;;21.10;99.90;;;;;;6245400;23;20032;-90
2023/06/19 07:39:46;;;;;;;5.82;4.50;;;21.00;99.90;;;;;;6246037;23;20063;-88
2023/06/19 07:42:14;;;;;;;3.90;2.80;;;21.00;99.90;;;;;;6219254;23;20074;-86
2023/06/19 07:44:40;;;;;;;7.05;5.50;;;20.90;99.90;;;;;;6247634;23;20052;-89
2023/06/19 07:47:07;;;;;;;7.95;5.68;;;20.80;99.90;;;;;;6245787;23;20020;-87
2023/06/19 07:49:33;;;;;;;7.85;4.30;;;20.80;99.90;;;;;;6246261;23;20016;-88
2023/06/19 07:51:59;;;;;;;11.63;8.45;;;20.80;99.90;;;;;;6218661;23;20087;-87
2023/06/19 07:54:24;;;;;;;15.48;8.43;;;20.70;99.90;;;;;;6218611;23;20038;-82
2023/06/19 07:56:50;;;;;;;11.40;6.55;;;20.70;99.90;;;;;;6218972;23;20027;-90
2023/06/19 07:59:16;;;;;;;15.48;8.88;;;20.70;99.90;;;;;;6245005;23;20095;-89
2023/06/19 08:01:43;;;;;;;13.57;7.50;;;20.70;99.90;;;;;;6219177;23;20024;-86
2023/06/19 08:04:09;;;;;;;10.95;7.20;;;20.60;99.90;;;;;;6245760;23;20026;-84
2023/06/19 08:06:34;;;;;;;11.48;8.52;;;20.60;99.90;;;;;;6218486;23;20099;-85
2023/06/19 08:09:00;;;;;;;9.27;5.43;;;20.60;99.90;;;;;;6245192;23;20027;-85
2023/06/19 08:11:26;;;;;;;11.85;7.75;;;20.60;99.90;;;;;;6218196;23;20469;-87
2023/06/19 08:13:52;;;;;;;15.82;8.50;;;20.60;99.90;;;;;;6218413;23;20023;-83
2023/06/19 08:16:18;;;;;;;10.95;6.47;;;20.60;99.90;;;;;;6245901;23;20501;-84
2023/06/19 08:18:45;;;;;;;15.55;7.88;;;20.70;99.90;;;;;;6245410;23;20044;-84
2023/06/19 08:21:10;;;;;;;17.25;7.50;;;20.70;99.90;;;;;;6245460;23;20020;-84
2023/06/19 08:23:37;;;;;;;9.80;6.18;;;20.80;99.90;;;;;;6245847;23;20020;-85
2023/06/19 08:26:03;;;;;;;9.32;6.03;;;20.70;99.90;;;;;;6245973;23;20012;-87
2023/06/19 08:28:33;;;;;;;14.85;8.40;;;20.70;99.90;;;;;;6218424;23;20078;-86
2023/06/19 08:30:59;;;;;;;10.98;6.13;;;20.70;99.90;;;;;;6245556;23;20016;-82
2023/06/19 08:33:24;;;;;;;10.32;6.53;;;20.70;99.90;;;;;;6193445;23;20058;-85
2023/06/19 08:35:50;;;;;;;11.23;5.75;;;20.80;99.90;;;;;;6244864;23;20073;-84
2023/06/19 08:38:15;;;;;;;7.00;4.47;;;20.80;99.90;;;;;;6245060;23;20093;-83
2023/06/19 08:40:45;;;;;;;10.23;5.72;;;20.90;99.90;;;;;;6218647;23;20094;-85
2023/06/19 08:43:11;;;;;;;7.30;4.80;;;20.90;99.90;;;;;;6245411;23;20016;-83
2023/06/19 08:45:37;;;;;;;7.90;4.70;;;21.00;99.90;;;;;;6218528;23;20008;-83
2023/06/19 08:48:03;;;;;;;7.32;3.65;;;21.00;99.90;;;;;;6245370;23;20023;-83
2023/06/19 08:50:32;;;;;;;9.88;5.72;;;21.10;99.90;;;;;;6218363;23;20518;-82
2023/06/19 08:52:58;;;;;;;7.85;5.47;;;21.20;99.90;;;;;;6245506;23;20024;-90
2023/06/19 08:55:24;;;;;;;6.60;4.57;;;21.20;99.90;;;;;;6245531;23;20023;-88
2023/06/19 08:57:52;;;;;;;5.07;3.50;;;21.30;99.90;;;;;;6245325;23;20028;-84
2023/06/19 09:00:29;;;;;;;5.32;3.25;;;21.30;99.90;;;;;;6245585;23;20017;-82
2023/06/19 09:03:02;;;;;;;7.32;3.97;;;21.40;99.90;;;;;;6245130;23;20091;-85
2023/06/19 09:05:28;;;;;;;4.88;3.10;;;21.60;99.90;;;;;;6246602;23;20095;-83
2023/06/19 09:07:56;;;;;;;5.30;3.30;;;21.70;99.90;;;;;;6220336;23;20418;-83
2023/06/19 09:10:23;;;;;;;7.75;3.53;;;21.80;99.90;;;;;;6220393;23;20082;-82
2023/06/19 09:12:58;;;;;;;4.00;2.42;;;21.80;99.90;;;;;;6247089;23;20387;-82
2023/06/19 09:15:26;;;;;;;3.92;2.67;;;21.80;99.90;;;;;;6220575;23;20047;-85
2023/06/19 09:18:21;;;;;;;4.10;2.78;;;21.90;99.90;;;;;;6247169;23;20020;-84
2023/06/19 09:20:47;;;;;;;3.55;2.58;;;21.90;99.90;;;;;;6124988;23;20033;-86
2023/06/19 09:23:13;;;;;;;4.57;2.22;;;21.90;99.90;;;;;;6125108;23;20021;-82
2023/06/19 09:25:52;;;;;;;2.92;1.80;;;21.90;99.90;;;;;;6124928;23;20356;-86
2023/06/19 09:28:23;;;;;;;4.35;2.90;;;21.90;99.90;;;;;;6124742;23;20113;-84
2023/06/19 09:30:59;;;;;;;3.13;1.90;;;21.80;99.90;;;;;;6124859;23;20064;-84
2023/06/19 09:33:26;;;;;;;4.55;2.60;;;21.90;99.90;;;;;;6125451;23;20022;-84
2023/06/19 09:35:55;;;;;;;3.53;2.08;;;21.80;99.90;;;;;;6125946;23;20036;-85
2023/06/19 09:38:26;;;;;;;2.50;1.80;;;21.80;99.90;;;;;;6125218;23;20542;-85
2023/06/19 09:40:53;;;;;;;3.22;1.63;;;21.70;99.90;;;;;;6126552;23;20026;-85
2023/06/19 09:43:23;;;;;;;3.83;1.63;;;21.60;99.90;;;;;;6127180;23;20053;-85
2023/06/19 09:45:50;;;;;;;4.05;1.55;;;21.60;99.90;;;;;;6126734;23;20065;-83
2023/06/19 09:48:22;;;;;;;3.03;1.73;;;21.60;99.90;;;;;;6100070;23;20026;-82
2023/06/19 09:50:54;;;;;;;5.32;2.00;;;21.60;99.90;;;;;;6124995;23;20076;-83
2023/06/19 09:53:20;;;;;;;5.22;2.50;;;21.50;99.90;;;;;;6125320;23;20033;-82
2023/06/19 09:55:50;;;;;;;3.97;2.20;;;21.50;99.90;;;;;;6124627;23;20104;-83
2023/06/19 09:58:20;;;;;;;3.60;2.28;;;21.40;99.90;;;;;;6214963;23;20032;-83
2023/06/19 10:00:47;;;;;;;4.53;3.20;;;21.40;99.90;;;;;;6246363;23;20020;-83
2023/06/19 10:03:14;;;;;;;4.95;2.38;;;21.40;99.90;;;;;;6246988;23;20020;-82
2023/06/19 10:05:40;;;;;;;4.63;2.25;;;21.30;99.90;;;;;;6219677;23;20396;-82
2023/06/19 10:08:08;;;;;;;7.13;3.25;;;21.30;99.90;;;;;;6219471;23;20016;-83
2023/06/19 10:10:36;;;;;;;5.13;2.38;;;21.30;99.90;;;;;;6219454;23;20055;-83
2023/06/19 10:13:13;;;;;;;6.20;2.80;;;21.30;99.90;;;;;;6246573;23;20363;-85
2023/06/19 10:15:44;;;;;;;4.15;3.08;;;21.30;99.90;;;;;;6245298;23;20051;-83
2023/06/19 10:18:18;;;;;;;5.57;2.80;;;21.20;99.90;;;;;;6245368;23;20024;-83
2023/06/19 10:20:45;;;;;;;4.00;3.60;;;21.20;99.90;;;;;;6219914;23;20346;-84
2023/06/19 10:23:18;;;;;;;6.75;4.38;;;21.10;99.90;;;;;;6246613;23;20074;-85
2023/06/19 10:25:46;;;;;;;4.82;3.53;;;21.00;99.90;;;;;;6219914;23;20327;-86
2023/06/19 10:28:27;;;;;;;4.68;3.63;;;21.00;99.90;;;;;;6246405;23;20024;-87
2023/06/19 10:30:59;;;;;;;6.45;3.90;;;20.90;99.90;;;;;;6245885;23;20017;-85
2023/06/19 10:33:27;;;;;;;5.95;3.58;;;21.00;99.90;;;;;;6246061;23;20024;-86
2023/06/19 10:35:53;;;;;;;7.38;3.80;;;21.00;99.90;;;;;;6218901;23;20020;-85
2023/06/19 10:38:19;;;;;;;11.02;5.85;;;21.00;99.90;;;;;;6245679;23;20117;-85
2023/06/19 10:40:45;;;;;;;4.85;3.30;;;21.10;99.90;;;;;;6245688;23;20031;-85
2023/06/19 10:43:19;;;;;;;6.82;4.07;;;21.20;99.90;;;;;;6246339;23;20415;-86
2023/06/19 10:45:45;;;;;;;7.80;4.80;;;21.30;99.90;;;;;;6245559;23;20031;-86
2023/06/19 10:48:11;;;;;;;6.38;2.63;;;21.40;99.90;;;;;;6219424;23;20431;-84
2023/06/19 10:50:42;;;;;;;5.25;3.60;;;21.50;99.90;;;;;;6245997;23;20048;-82
2023/06/19 10:53:08;;;;;;;5.00;3.28;;;21.50;99.90;;;;;;6246084;23;20382;-83
2023/06/19 10:55:34;;;;;;;4.88;4.13;;;21.60;99.90;;;;;;6245677;23;20024;-85
2023/06/19 10:57:59;;;;;;;7.55;4.18;;;21.80;99.90;;;;;;6246083;23;20017;-88
2023/06/19 11:00:27;;;;;;;7.07;4.13;;;21.70;99.90;;;;;;6219385;23;20343;-86
2023/06/19 11:02:55;;;;;;;4.88;3.75;;;22.00;99.90;;;;;;6245398;23;20458;-87
2023/06/19 11:05:22;;;;;;;5.65;3.63;;;22.10;99.90;;;;;;6246706;23;20007;-87
2023/06/19 11:07:53;;;;;;;6.78;3.80;;;22.40;99.90;;;;;;6247393;23;20469;-90
2023/06/19 11:10:22;;;;;;;4.75;3.03;;;22.40;99.90;;;;;;6247951;23;20016;-89
2023/06/19 11:12:49;;;;;;;7.20;4.32;;;22.70;99.90;;;;;;6219335;23;20458;-84
2023/06/19 11:15:14;;;;;;;5.63;3.97;;;22.70;99.90;;;;;;6246348;23;20024;-84
2023/06/19 11:17:40;;;;;;;5.30;4.07;;;22.80;99.90;;;;;;6219883;23;20470;-83
2023/06/19 11:20:11;;;;;;;6.60;3.70;;;22.80;99.90;;;;;;6245584;23;20097;-84
2023/06/19 11:22:40;;;;;;;5.97;3.42;;;22.90;99.90;;;;;;6246098;23;20008;-89
2023/06/19 11:25:07;;;;;;;6.60;3.70;;;23.00;99.90;;;;;;6246353;23;20389;-87
2023/06/19 11:27:34;;;;;;;6.85;3.45;;;23.00;99.90;;;;;;6245241;23;20018;-85
2023/06/19 11:30:04;;;;;;;8.32;4.63;;;23.00;99.90;;;;;;6246280;23;20020;-85
2023/06/19 11:32:41;;;;;;;4.88;3.13;;;23.00;99.90;;;;;;6245647;23;20020;-86
2023/06/19 11:35:10;;;;;;;5.05;3.00;;;23.00;99.90;;;;;;6244962;23;20027;-88
2023/06/19 11:37:37;;;;;;;7.05;3.63;;;23.30;99.90;;;;;;6245678;23;20051;-86
2023/06/19 11:43:00;;;;;;;6.20;3.90;;;23.60;99.90;;;;;;6153325;23;20073;-88
2023/06/19 11:45:26;;;;;;;6.13;3.33;;;23.80;99.90;;;;;;6129504;23;20057;-87
2023/06/19 11:47:51;;;;;;;6.88;3.85;;;24.10;99.90;;;;;;6129815;23;20026;-87
2023/06/19 11:50:19;;;;;;;8.70;4.72;;;24.30;99.90;;;;;;6129893;23;20044;-88
2023/06/19 11:52:44;;;;;;;6.85;3.80;;;24.30;99.90;;;;;;6152805;23;20141;-85
2023/06/19 11:55:11;;;;;;;8.32;3.83;;;24.10;99.90;;;;;;6152881;23;20353;-85
2023/06/19 11:57:37;;;;;;;7.45;4.38;;;24.00;99.90;;;;;;6152033;23;20069;-85
2023/06/19 12:00:07;;;;;;;5.93;2.75;;;23.90;99.90;;;;;;6152937;23;20096;-86
2023/06/19 12:02:33;;;;;;;5.28;3.38;;;24.40;99.90;;;;;;6127502;23;20021;-87
2023/06/19 12:04:59;;;;;;;8.80;3.35;;;24.90;99.90;;;;;;6128028;23;20076;-85
2023/06/19 12:07:25;;;;;;;6.15;4.15;;;25.00;99.90;;;;;;6128154;23;20333;-85
2023/06/19 12:09:51;;;;;;;6.55;3.63;;;24.90;99.90;;;;;;6152945;23;20068;-89
2023/06/19 12:12:17;;;;;;;5.55;3.28;;;25.10;99.90;;;;;;6127982;23;20083;-87
2023/06/19 12:14:43;;;;;;;8.15;4.32;;;25.10;99.90;;;;;;6128878;23;20104;-87
2023/06/19 12:17:10;;;;;;;9.73;5.22;;;25.30;99.90;;;;;;6153259;23;20033;-87
2023/06/19 12:19:36;;;;;;;7.47;5.07;;;25.30;99.90;;;;;;6209627;23;20024;-84
2023/06/19 12:22:03;;;;;;;7.70;3.63;;;25.00;99.90;;;;;;6245009;23;20020;-85
2023/06/19 12:24:29;;;;;;;9.75;5.88;;;24.90;99.90;;;;;;6245037;23;20091;-84
2023/06/19 12:26:55;;;;;;;7.00;4.88;;;24.90;99.90;;;;;;6218646;23;20055;-84
2023/06/19 12:29:20;;;;;;;6.15;3.38;;;24.80;99.90;;;;;;6245573;23;20043;-84
2023/06/19 12:31:46;;;;;;;5.68;3.40;;;24.80;99.90;;;;;;6217665;23;20056;-84
2023/06/19 12:34:12;;;;;;;7.05;4.40;;;24.80;99.90;;;;;;6245069;23;20032;-84
2023/06/19 12:36:37;;;;;;;5.50;4.07;;;24.80;99.90;;;;;;6218155;23;20390;-85
2023/06/19 12:39:06;;;;;;;6.45;4.13;;;24.90;99.90;;;;;;6245310;23;20078;-84
2023/06/19 12:41:31;;;;;;;8.85;4.75;;;24.90;99.90;;;;;;6246975;23;20059;-84
2023/06/19 12:43:57;;;;;;;8.15;3.90;;;24.90;99.90;;;;;;6247048;23;20027;-84
2023/06/19 12:46:23;;;;;;;7.25;4.47;;;24.90;99.90;;;;;;6219919;23;20446;-85